Time;durP1;ratioP1;P1;durP2;ratioP2;P2;SDS_P1;SDS_P2;PMS_P1;PMS_P2;Temp;Humidity;BMP_temperature;BMP_pressure;BME280_temperature;BME280_humidity;BME280_pressure;Samples;Min_cycle;Max_cycle;Signal;HPM_P1;HPM_P2
2024/01/13 00:00:11;;;;;;;10.88;6.35;;;;;;;;;;10299171;28;20269;-73
2024/01/13 00:05:12;;;;;;;12.70;7.75;;;;;;;;;;10304032;28;20278;-73
2024/01/13 00:10:13;;;;;;;13.35;7.32;;;;;;;;;;10300636;28;20237;-73
2024/01/13 00:15:14;;;;;;;15.75;6.75;;;;;;;;;;10300292;28;20900;-72
2024/01/13 00:20:15;;;;;;;9.02;5.88;;;;;;;;;;10292007;28;20196;-73
2024/01/13 00:25:16;;;;;;;12.63;6.25;;;;;;;;;;10308209;28;20589;-73
2024/01/13 00:30:17;;;;;;;8.95;5.68;;;;;;;;;;10311436;28;20279;-72
2024/01/13 00:35:18;;;;;;;8.82;6.03;;;;;;;;;;10316534;28;20215;-72
2024/01/13 00:40:19;;;;;;;11.05;7.38;;;;;;;;;;10305759;28;20656;-73
2024/01/13 00:45:20;;;;;;;13.18;7.50;;;;;;;;;;10303983;28;20213;-73
2024/01/13 00:50:21;;;;;;;10.80;6.60;;;;;;;;;;10293888;28;21483;-73
2024/01/13 00:55:22;;;;;;;14.75;8.13;;;;;;;;;;10313722;28;20667;-73
2024/01/13 01:00:23;;;;;;;11.43;7.05;;;;;;;;;;10304161;28;20191;-73
2024/01/13 01:05:24;;;;;;;10.27;6.45;;;;;;;;;;10324220;28;20208;-72
2024/01/13 01:10:25;;;;;;;12.77;7.68;;;;;;;;;;10310256;28;20219;-72
2024/01/13 01:15:26;;;;;;;12.48;7.25;;;;;;;;;;10303294;28;20307;-72
2024/01/13 01:20:27;;;;;;;12.27;7.38;;;;;;;;;;10287232;28;20185;-72
2024/01/13 01:25:27;;;;;;;11.82;7.63;;;;;;;;;;10296899;28;20303;-72
2024/01/13 01:30:28;;;;;;;11.25;6.97;;;;;;;;;;10313583;28;20224;-72
2024/01/13 01:35:29;;;;;;;11.55;7.30;;;;;;;;;;10316045;28;20443;-72
2024/01/13 01:40:31;;;;;;;9.50;6.47;;;;;;;;;;10307131;28;20295;-72
2024/01/13 01:45:32;;;;;;;10.30;6.53;;;;;;;;;;10314285;28;20220;-72
2024/01/13 01:50:33;;;;;;;12.93;7.50;;;;;;;;;;10308988;28;20284;-72
2024/01/13 01:55:34;;;;;;;10.43;6.82;;;;;;;;;;10299627;28;20219;-72
2024/01/13 02:00:35;;;;;;;10.27;5.95;;;;;;;;;;10295313;28;20221;-73
2024/01/13 02:05:37;;;;;;;8.07;5.70;;;;;;;;;;10320974;28;20216;-72
2024/01/13 02:10:38;;;;;;;7.18;5.80;;;;;;;;;;10314929;28;20195;-73
2024/01/13 02:15:39;;;;;;;9.75;5.75;;;;;;;;;;10296210;28;20216;-72
2024/01/13 02:20:40;;;;;;;9.77;6.25;;;;;;;;;;10300474;28;20204;-72
2024/01/13 02:25:41;;;;;;;6.45;5.15;;;;;;;;;;10318640;28;20220;-72
2024/01/13 02:30:42;;;;;;;7.88;5.43;;;;;;;;;;10298690;28;20225;-72
2024/01/13 02:35:43;;;;;;;8.50;5.93;;;;;;;;;;10320694;28;20445;-72
2024/01/13 02:40:44;;;;;;;7.20;5.30;;;;;;;;;;10302038;28;20193;-72
2024/01/13 02:45:45;;;;;;;9.65;5.85;;;;;;;;;;10318029;28;20299;-72
2024/01/13 02:50:49;;;;;;;8.48;5.82;;;;;;;;;;10315342;28;20224;-72
2024/01/13 02:55:50;;;;;;;6.05;4.70;;;;;;;;;;10316198;28;20267;-72
2024/01/13 03:00:50;;;;;;;6.32;5.40;;;;;;;;;;10312568;28;20904;-72
2024/01/13 03:05:51;;;;;;;8.77;5.22;;;;;;;;;;10317606;28;20300;-72
2024/01/13 03:10:52;;;;;;;6.85;4.45;;;;;;;;;;10307700;28;20189;-72
2024/01/13 03:15:53;;;;;;;6.55;4.28;;;;;;;;;;10315553;28;20712;-72
2024/01/13 03:20:54;;;;;;;5.35;4.22;;;;;;;;;;10324312;28;20275;-72
2024/01/13 03:25:55;;;;;;;4.40;4.00;;;;;;;;;;10308993;28;20218;-72
2024/01/13 03:30:58;;;;;;;6.40;4.05;;;;;;;;;;10310266;28;20220;-72
2024/01/13 03:35:59;;;;;;;6.75;3.65;;;;;;;;;;10329328;28;20205;-72
2024/01/13 03:41:00;;;;;;;5.63;3.70;;;;;;;;;;10312587;28;20192;-72
2024/01/13 03:46:01;;;;;;;4.25;3.78;;;;;;;;;;10313620;28;20227;-72
2024/01/13 03:51:02;;;;;;;5.28;3.40;;;;;;;;;;10298248;28;20192;-72
2024/01/13 03:56:08;;;;;;;5.18;3.90;;;;;;;;;;10309806;28;20200;-72
2024/01/13 04:01:09;;;;;;;4.45;2.53;;;;;;;;;;10305447;28;20221;-72
2024/01/13 04:06:10;;;;;;;2.45;2.25;;;;;;;;;;10295715;28;20227;-72
2024/01/13 04:11:12;;;;;;;3.15;2.85;;;;;;;;;;10306146;28;20246;-72
2024/01/13 04:16:13;;;;;;;6.10;3.20;;;;;;;;;;10298820;28;20834;-73
2024/01/13 04:21:14;;;;;;;3.30;2.50;;;;;;;;;;10303006;28;20205;-71
2024/01/13 04:26:15;;;;;;;3.38;2.63;;;;;;;;;;10306170;28;20216;-72
2024/01/13 04:31:16;;;;;;;6.35;2.97;;;;;;;;;;10313190;28;20244;-71
2024/01/13 04:36:17;;;;;;;3.53;3.22;;;;;;;;;;10307189;28;20264;-72
2024/01/13 04:41:18;;;;;;;3.22;2.90;;;;;;;;;;10323123;28;20244;-72
2024/01/13 04:46:19;;;;;;;3.90;2.90;;;;;;;;;;10316567;28;20277;-72
2024/01/13 04:51:20;;;;;;;4.68;2.88;;;;;;;;;;10324311;28;20699;-71
2024/01/13 04:56:21;;;;;;;3.60;2.97;;;;;;;;;;10313927;28;20204;-71
2024/01/13 05:01:22;;;;;;;2.75;2.38;;;;;;;;;;10298138;28;20231;-72
2024/01/13 05:06:23;;;;;;;2.85;2.65;;;;;;;;;;10297053;28;20186;-71
2024/01/13 05:11:24;;;;;;;3.47;2.80;;;;;;;;;;10301588;28;20212;-71
2024/01/13 05:16:25;;;;;;;4.00;2.92;;;;;;;;;;10320165;28;20647;-71
2024/01/13 05:21:26;;;;;;;3.35;2.63;;;;;;;;;;10282262;28;20213;-71
2024/01/13 05:26:27;;;;;;;2.70;2.30;;;;;;;;;;10315502;28;20247;-71
2024/01/13 05:31:28;;;;;;;2.30;2.10;;;;;;;;;;10318916;28;20687;-71
2024/01/13 05:36:28;;;;;;;1.95;1.85;;;;;;;;;;10304031;28;20683;-71
2024/01/13 05:41:29;;;;;;;1.80;1.70;;;;;;;;;;10318008;28;20214;-71
2024/01/13 05:46:30;;;;;;;1.13;1.13;;;;;;;;;;10313246;28;20180;-71
2024/01/13 05:51:33;;;;;;;1.67;1.58;;;;;;;;;;10320230;28;20209;-71
2024/01/13 05:56:34;;;;;;;1.88;1.65;;;;;;;;;;10318858;28;20211;-70
2024/01/13 06:01:35;;;;;;;1.10;1.10;;;;;;;;;;10321386;28;20270;-71
2024/01/13 06:06:36;;;;;;;0.77;0.77;;;;;;;;;;10323555;28;20540;-70
2024/01/13 06:11:43;;;;;;;0.60;0.60;;;;;;;;;;10307337;28;20217;-71
2024/01/13 06:16:44;;;;;;;0.77;0.77;;;;;;;;;;10306860;28;20207;-70
2024/01/13 06:21:45;;;;;;;0.55;0.55;;;;;;;;;;10318294;28;20210;-70
2024/01/13 06:26:46;;;;;;;0.80;0.80;;;;;;;;;;10316812;28;20213;-70
2024/01/13 06:31:47;;;;;;;2.38;0.70;;;;;;;;;;10319181;28;20229;-71
2024/01/13 06:36:48;;;;;;;0.60;0.60;;;;;;;;;;10316885;28;20200;-71
2024/01/13 06:41:49;;;;;;;0.65;0.65;;;;;;;;;;10284894;28;20850;-70
2024/01/13 06:46:50;;;;;;;0.70;0.70;;;;;;;;;;10327759;28;20221;-70
2024/01/13 06:51:51;;;;;;;3.67;1.10;;;;;;;;;;10292441;28;20302;-70
2024/01/13 06:56:52;;;;;;;0.95;0.95;;;;;;;;;;10323141;28;20200;-70
2024/01/13 07:01:53;;;;;;;1.05;1.00;;;;;;;;;;10307116;28;20263;-71
2024/01/13 07:06:54;;;;;;;1.08;1.08;;;;;;;;;;10294486;28;20671;-70
2024/01/13 07:11:55;;;;;;;1.80;1.70;;;;;;;;;;10316426;28;20223;-71
2024/01/13 07:16:56;;;;;;;2.63;2.40;;;;;;;;;;10305515;28;20200;-71
2024/01/13 07:21:58;;;;;;;2.47;2.28;;;;;;;;;;10307624;28;20228;-71
2024/01/13 07:26:59;;;;;;;2.42;1.83;;;;;;;;;;10294897;28;20189;-70
2024/01/13 07:32:00;;;;;;;1.70;1.60;;;;;;;;;;10290108;28;20719;-70
2024/01/13 07:37:01;;;;;;;1.33;1.23;;;;;;;;;;10314338;28;20276;-70
2024/01/13 07:42:02;;;;;;;1.58;1.58;;;;;;;;;;10296594;28;20229;-70
2024/01/13 07:47:03;;;;;;;0.98;0.98;;;;;;;;;;10322264;28;20184;-70
2024/01/13 07:52:04;;;;;;;1.30;1.20;;;;;;;;;;10319346;28;20350;-70
2024/01/13 07:57:06;;;;;;;1.27;1.13;;;;;;;;;;10290385;28;20255;-70
2024/01/13 08:02:06;;;;;;;3.10;1.77;;;;;;;;;;10295394;28;20219;-70
2024/01/13 08:07:07;;;;;;;3.05;1.00;;;;;;;;;;10306847;28;20200;-70
2024/01/13 08:12:09;;;;;;;1.20;1.20;;;;;;;;;;10307575;28;20220;-70
2024/01/13 08:17:10;;;;;;;1.25;1.25;;;;;;;;;;10290624;28;20251;-70
2024/01/13 08:22:11;;;;;;;1.83;1.33;;;;;;;;;;10314948;28;20261;-70
2024/01/13 08:27:11;;;;;;;1.42;1.38;;;;;;;;;;10313083;28;20565;-70
2024/01/13 08:32:12;;;;;;;1.27;1.23;;;;;;;;;;10292935;28;20232;-70
2024/01/13 08:37:13;;;;;;;2.25;1.40;;;;;;;;;;10319138;28;20192;-70
2024/01/13 08:42:14;;;;;;;1.40;1.40;;;;;;;;;;10313124;28;20247;-70
2024/01/13 08:47:15;;;;;;;1.45;1.42;;;;;;;;;;10316910;28;20193;-70
2024/01/13 08:52:16;;;;;;;1.70;1.00;;;;;;;;;;10279847;28;20259;-70
2024/01/13 08:57:17;;;;;;;1.17;1.08;;;;;;;;;;10290450;28;20217;-70
2024/01/13 09:02:18;;;;;;;0.70;0.70;;;;;;;;;;10307078;28;20871;-69
2024/01/13 09:07:20;;;;;;;1.20;1.20;;;;;;;;;;10305906;28;20216;-69
2024/01/13 09:12:21;;;;;;;1.00;1.00;;;;;;;;;;10288759;28;20213;-69
2024/01/13 09:17:22;;;;;;;0.93;0.93;;;;;;;;;;10307085;28;20600;-69
2024/01/13 09:22:23;;;;;;;1.63;1.45;;;;;;;;;;10308012;28;20212;-69
2024/01/13 09:27:24;;;;;;;1.02;1.02;;;;;;;;;;10305958;28;20188;-68
2024/01/13 09:32:25;;;;;;;0.93;0.93;;;;;;;;;;10293326;28;20251;-68
2024/01/13 09:37:26;;;;;;;0.90;0.90;;;;;;;;;;10311838;28;20188;-69
2024/01/13 09:42:29;;;;;;;1.55;1.52;;;;;;;;;;10320944;28;20232;-68
2024/01/13 09:47:30;;;;;;;0.90;0.90;;;;;;;;;;10301498;28;20640;-68
2024/01/13 09:52:32;;;;;;;0.90;0.90;;;;;;;;;;10297091;28;20205;-68
2024/01/13 09:57:33;;;;;;;0.73;0.73;;;;;;;;;;10305170;28;20448;-69
2024/01/13 10:02:33;;;;;;;0.80;0.80;;;;;;;;;;10327784;28;20220;-69
2024/01/13 10:07:36;;;;;;;0.75;0.50;;;;;;;;;;10315534;28;20313;-69
2024/01/13 10:12:38;;;;;;;0.85;0.65;;;;;;;;;;10278572;28;20818;-70
2024/01/13 10:17:40;;;;;;;0.75;0.75;;;;;;;;;;10302118;28;20231;-69
2024/01/13 10:22:42;;;;;;;1.02;0.60;;;;;;;;;;10302252;28;20212;-69
2024/01/13 10:27:46;;;;;;;0.70;0.70;;;;;;;;;;10307301;28;20221;-69
2024/01/13 10:32:47;;;;;;;0.70;0.70;;;;;;;;;;10304782;28;20248;-69
2024/01/13 10:37:48;;;;;;;0.60;0.60;;;;;;;;;;10290577;28;21150;-69
2024/01/13 10:42:53;;;;;;;1.42;1.33;;;;;;;;;;10296232;28;20758;-69
2024/01/13 10:48:04;;;;;;;0.60;0.60;;;;;;;;;;10280292;28;20177;-70
2024/01/13 10:53:16;;;;;;;1.10;0.98;;;;;;;;;;10291654;28;20226;-69
2024/01/13 10:58:18;;;;;;;2.30;2.20;;;;;;;;;;10313444;28;20193;-70
2024/01/13 11:03:19;;;;;;;2.22;2.10;;;;;;;;;;10265832;28;20680;-70
2024/01/13 11:08:20;;;;;;;2.60;2.50;;;;;;;;;;10298433;28;20288;-70
2024/01/13 11:13:23;;;;;;;2.55;2.45;;;;;;;;;;10293264;28;20216;-69
2024/01/13 11:18:26;;;;;;;2.70;2.50;;;;;;;;;;10317388;28;20200;-69
2024/01/13 11:23:27;;;;;;;3.63;3.03;;;;;;;;;;10300608;28;20228;-69
2024/01/13 11:28:42;;;;;;;2.65;2.45;;;;;;;;;;10304100;28;20188;-69
2024/01/13 11:33:43;;;;;;;3.15;2.95;;;;;;;;;;10294303;28;20801;-70
2024/01/13 11:38:44;;;;;;;3.38;3.08;;;;;;;;;;10291827;28;20624;-70
2024/01/13 11:43:45;;;;;;;4.75;2.88;;;;;;;;;;10309321;28;20355;-70
2024/01/13 11:48:46;;;;;;;3.25;2.95;;;;;;;;;;10300625;28;20189;-69
2024/01/13 11:53:47;;;;;;;3.08;2.88;;;;;;;;;;10274065;28;20234;-69
2024/01/13 11:58:48;;;;;;;3.33;3.00;;;;;;;;;;10296814;28;20248;-69
2024/01/13 12:03:49;;;;;;;3.53;3.22;;;;;;;;;;10298085;28;20221;-69
2024/01/13 12:08:54;;;;;;;4.85;3.38;;;;;;;;;;10306007;28;20185;-68
2024/01/13 12:13:55;;;;;;;3.85;2.58;;;;;;;;;;10302623;28;20218;-69
2024/01/13 12:18:56;;;;;;;4.68;3.25;;;;;;;;;;10305786;28;20197;-69
2024/01/13 12:23:58;;;;;;;4.25;3.75;;;;;;;;;;10299745;28;20231;-69
2024/01/13 12:28:59;;;;;;;2.85;2.65;;;;;;;;;;10310293;28;20208;-69
2024/01/13 12:34:13;;;;;;;2.90;2.65;;;;;;;;;;10312736;28;20220;-69
2024/01/13 12:39:14;;;;;;;2.97;2.78;;;;;;;;;;10314867;28;20193;-70
2024/01/13 12:44:15;;;;;;;2.60;2.40;;;;;;;;;;10290177;28;20465;-69
2024/01/13 12:49:17;;;;;;;3.28;2.72;;;;;;;;;;10301230;28;20185;-70
2024/01/13 12:54:21;;;;;;;2.17;1.95;;;;;;;;;;10291447;28;20283;-70
2024/01/13 12:59:23;;;;;;;4.18;2.30;;;;;;;;;;10280161;28;20210;-69
2024/01/13 13:04:24;;;;;;;5.88;2.17;;;;;;;;;;10271808;28;20236;-70
2024/01/13 13:09:25;;;;;;;3.15;2.38;;;;;;;;;;10287812;28;20208;-71
2024/01/13 13:14:26;;;;;;;2.45;1.73;;;;;;;;;;10274867;28;20205;-69
2024/01/13 13:19:27;;;;;;;1.80;1.70;;;;;;;;;;10309965;28;20189;-70
2024/01/13 13:24:28;;;;;;;1.85;1.70;;;;;;;;;;10293322;28;20217;-70
2024/01/13 13:29:29;;;;;;;1.85;1.30;;;;;;;;;;10298883;28;20218;-70
2024/01/13 13:34:30;;;;;;;1.95;1.85;;;;;;;;;;10304664;28;22411;-70
2024/01/13 13:39:34;;;;;;;1.63;1.52;;;;;;;;;;10296301;28;21673;-70
2024/01/13 13:44:37;;;;;;;1.48;1.45;;;;;;;;;;10284983;28;20209;-70
2024/01/13 13:49:38;;;;;;;1.23;1.23;;;;;;;;;;10295503;28;20196;-69
2024/01/13 13:54:39;;;;;;;1.75;1.65;;;;;;;;;;10303172;28;20219;-69
2024/01/13 13:59:40;;;;;;;2.00;1.90;;;;;;;;;;10313404;28;20184;-70
2024/01/13 14:04:41;;;;;;;2.53;1.98;;;;;;;;;;10278872;28;20737;-69
2024/01/13 14:09:42;;;;;;;2.25;2.15;;;;;;;;;;10316660;28;20189;-68
2024/01/13 14:14:43;;;;;;;2.08;1.92;;;;;;;;;;10308336;28;20211;-71
2024/01/13 14:19:44;;;;;;;2.28;2.00;;;;;;;;;;10302790;28;20283;-70
2024/01/13 14:24:46;;;;;;;2.58;2.38;;;;;;;;;;10313291;28;20248;-70
2024/01/13 14:29:47;;;;;;;2.53;2.42;;;;;;;;;;10304819;28;20690;-71
2024/01/13 14:34:48;;;;;;;2.40;2.20;;;;;;;;;;10303912;28;20343;-71
2024/01/13 14:39:48;;;;;;;2.88;2.60;;;;;;;;;;10306508;28;20206;-71
2024/01/13 14:44:50;;;;;;;3.33;2.60;;;;;;;;;;10314667;28;20690;-71
2024/01/13 14:49:51;;;;;;;4.50;3.63;;;;;;;;;;10297651;28;20323;-71
2024/01/13 14:54:52;;;;;;;4.60;3.28;;;;;;;;;;10291180;28;20741;-71
2024/01/13 14:59:54;;;;;;;3.70;3.33;;;;;;;;;;10322250;28;20266;-71
2024/01/13 15:04:55;;;;;;;5.10;3.35;;;;;;;;;;10296042;28;20448;-71
2024/01/13 15:09:56;;;;;;;3.95;3.25;;;;;;;;;;10328549;28;20192;-71
2024/01/13 15:14:57;;;;;;;3.55;3.25;;;;;;;;;;10317929;28;20362;-71
2024/01/13 15:19:58;;;;;;;4.55;3.75;;;;;;;;;;10303942;28;20291;-71
2024/01/13 15:24:59;;;;;;;3.90;3.55;;;;;;;;;;10287907;28;20236;-71
2024/01/13 15:30:03;;;;;;;3.47;3.17;;;;;;;;;;10311502;28;20196;-71
2024/01/13 15:35:06;;;;;;;4.15;3.30;;;;;;;;;;10296542;28;20445;-71
2024/01/13 15:40:07;;;;;;;5.80;4.60;;;;;;;;;;10286921;28;20217;-71
2024/01/13 15:45:09;;;;;;;4.30;3.90;;;;;;;;;;10286581;28;20225;-71
2024/01/13 15:50:10;;;;;;;4.18;3.78;;;;;;;;;;10316311;28;20229;-71
2024/01/13 15:55:11;;;;;;;3.83;3.45;;;;;;;;;;10315064;28;20204;-71
2024/01/13 16:00:12;;;;;;;4.40;3.42;;;;;;;;;;10312109;28;20684;-71
2024/01/13 16:05:13;;;;;;;7.20;3.80;;;;;;;;;;10298409;28;20241;-71
2024/01/13 16:10:14;;;;;;;3.65;3.38;;;;;;;;;;10299703;28;20682;-71
2024/01/13 16:15:15;;;;;;;3.90;3.42;;;;;;;;;;10312036;28;20223;-71
2024/01/13 16:20:18;;;;;;;4.22;3.83;;;;;;;;;;10290162;28;20188;-71
2024/01/13 16:25:19;;;;;;;4.35;3.88;;;;;;;;;;10317839;28;20212;-69
2024/01/13 16:30:20;;;;;;;4.10;3.70;;;;;;;;;;10320707;28;20282;-70
2024/01/13 16:35:21;;;;;;;5.10;3.55;;;;;;;;;;10312637;28;20303;-72
2024/01/13 16:40:26;;;;;;;4.63;3.85;;;;;;;;;;10309700;28;25438;-71
2024/01/13 16:45:29;;;;;;;3.83;3.55;;;;;;;;;;10289431;28;20216;-71
2024/01/13 16:50:30;;;;;;;4.50;4.10;;;;;;;;;;10317437;28;20200;-71
2024/01/13 16:55:32;;;;;;;4.63;4.00;;;;;;;;;;10290296;28;20211;-72
2024/01/13 17:00:33;;;;;;;4.03;3.63;;;;;;;;;;10288887;28;20207;-70
2024/01/13 17:05:34;;;;;;;6.15;4.50;;;;;;;;;;10298236;28;20690;-70
2024/01/13 17:10:35;;;;;;;8.40;4.93;;;;;;;;;;10277600;28;20193;-70
2024/01/13 17:15:36;;;;;;;5.85;4.10;;;;;;;;;;10298324;28;20249;-71
2024/01/13 17:20:37;;;;;;;5.03;3.95;;;;;;;;;;10289864;28;20200;-71
2024/01/13 17:25:38;;;;;;;5.85;3.95;;;;;;;;;;10320160;28;20225;-71
2024/01/13 17:30:39;;;;;;;6.63;4.75;;;;;;;;;;10305303;28;20253;-72
2024/01/13 17:35:40;;;;;;;4.35;3.92;;;;;;;;;;10305473;28;20258;-71
2024/01/13 17:40:41;;;;;;;5.38;4.10;;;;;;;;;;10310986;28;20331;-70
2024/01/13 17:45:42;;;;;;;5.38;3.97;;;;;;;;;;10305655;28;20722;-72
2024/01/13 17:50:43;;;;;;;7.05;4.80;;;;;;;;;;10304794;28;20392;-70
2024/01/13 17:55:49;;;;;;;4.90;4.20;;;;;;;;;;10301533;28;20627;-70
2024/01/13 18:00:50;;;;;;;7.32;4.40;;;;;;;;;;10312917;28;20696;-70
2024/01/13 18:05:51;;;;;;;6.97;4.78;;;;;;;;;;10314117;28;20224;-70
2024/01/13 18:10:52;;;;;;;6.70;4.07;;;;;;;;;;10315795;28;20193;-70
2024/01/13 18:15:53;;;;;;;4.82;4.00;;;;;;;;;;10307458;28;20216;-70
2024/01/13 18:20:55;;;;;;;8.20;4.95;;;;;;;;;;10288259;28;20328;-70
2024/01/13 18:25:56;;;;;;;12.48;5.13;;;;;;;;;;10309847;28;20486;-70
2024/01/13 18:30:57;;;;;;;8.95;5.68;;;;;;;;;;10305088;28;20316;-70
2024/01/13 18:35:59;;;;;;;8.43;5.15;;;;;;;;;;10308883;28;20619;-70
2024/01/13 18:41:00;;;;;;;8.27;4.88;;;;;;;;;;10294921;28;20285;-70
2024/01/13 18:46:01;;;;;;;9.57;5.03;;;;;;;;;;10296883;28;20234;-70
2024/01/13 18:51:02;;;;;;;6.72;4.90;;;;;;;;;;10292426;28;20196;-70
2024/01/13 18:56:03;;;;;;;6.82;4.90;;;;;;;;;;10312237;28;20246;-70
2024/01/13 19:01:05;;;;;;;7.35;4.75;;;;;;;;;;10312645;28;20226;-69
2024/01/13 19:06:08;;;;;;;5.38;4.00;;;;;;;;;;10298384;28;20247;-71
2024/01/13 19:11:09;;;;;;;6.05;4.50;;;;;;;;;;10307352;28;20196;-70
2024/01/13 19:16:10;;;;;;;6.45;4.32;;;;;;;;;;10286375;28;20205;-70
2024/01/13 19:21:11;;;;;;;5.40;3.45;;;;;;;;;;10301483;28;20725;-70
2024/01/13 19:26:14;;;;;;;4.68;4.22;;;;;;;;;;10304364;28;20212;-70
2024/01/13 19:31:15;;;;;;;5.50;3.83;;;;;;;;;;10310500;28;20237;-70
2024/01/13 19:36:16;;;;;;;6.47;4.35;;;;;;;;;;10308277;28;20201;-70
2024/01/13 19:41:17;;;;;;;6.07;4.22;;;;;;;;;;10309701;28;20200;-70
2024/01/13 19:46:18;;;;;;;5.07;3.83;;;;;;;;;;10273657;28;20236;-71
2024/01/13 19:51:19;;;;;;;5.20;3.55;;;;;;;;;;10305515;28;20203;-71
2024/01/13 19:56:23;;;;;;;5.38;4.40;;;;;;;;;;10296791;28;20563;-71
2024/01/13 20:01:24;;;;;;;4.78;3.85;;;;;;;;;;10286358;28;20680;-70
2024/01/13 20:06:25;;;;;;;3.40;3.10;;;;;;;;;;10285813;28;20221;-71
2024/01/13 20:11:28;;;;;;;5.10;3.80;;;;;;;;;;10319968;28;20208;-70
2024/01/13 20:16:29;;;;;;;6.90;3.90;;;;;;;;;;10276770;28;20256;-70
2024/01/13 20:21:30;;;;;;;4.13;3.60;;;;;;;;;;10276488;28;20209;-70
2024/01/13 20:26:31;;;;;;;4.35;3.95;;;;;;;;;;10305440;28;20702;-70
2024/01/13 20:31:34;;;;;;;5.97;4.15;;;;;;;;;;10291060;28;20279;-70
2024/01/13 20:36:35;;;;;;;8.23;3.78;;;;;;;;;;10319920;28;20185;-70
2024/01/13 20:41:37;;;;;;;4.40;3.42;;;;;;;;;;10288849;28;20212;-71
2024/01/13 20:46:38;;;;;;;10.95;4.35;;;;;;;;;;10291584;28;20853;-70
2024/01/13 20:51:39;;;;;;;6.45;3.42;;;;;;;;;;10314357;28;20816;-70
2024/01/13 20:56:41;;;;;;;4.57;3.80;;;;;;;;;;10303846;28;20207;-70
2024/01/13 21:01:42;;;;;;;4.80;3.67;;;;;;;;;;10298405;28;20225;-70
2024/01/13 21:06:45;;;;;;;4.70;3.67;;;;;;;;;;10298271;28;20216;-70
2024/01/13 21:11:50;;;;;;;5.90;3.42;;;;;;;;;;10293549;28;20255;-70
2024/01/13 21:16:51;;;;;;;5.05;3.42;;;;;;;;;;10305512;28;20802;-69
2024/01/13 21:21:52;;;;;;;4.13;3.70;;;;;;;;;;10303008;28;20212;-70
2024/01/13 21:26:53;;;;;;;5.45;4.38;;;;;;;;;;10314684;28;20632;-69
2024/01/13 21:31:54;;;;;;;4.13;3.72;;;;;;;;;;10302881;28;20813;-70
2024/01/13 21:36:55;;;;;;;4.78;3.47;;;;;;;;;;10306851;28;20239;-70
2024/01/13 21:41:57;;;;;;;7.88;4.18;;;;;;;;;;10308779;28;20307;-70
2024/01/13 21:46:58;;;;;;;5.60;3.50;;;;;;;;;;10299278;28;20412;-69
2024/01/13 21:51:59;;;;;;;4.43;3.63;;;;;;;;;;10297370;28;20224;-70
2024/01/13 21:57:05;;;;;;;7.53;2.78;;;;;;;;;;10311468;28;20211;-70
2024/01/13 22:02:06;;;;;;;3.75;3.33;;;;;;;;;;10307708;28;20247;-69
2024/01/13 22:07:08;;;;;;;3.72;3.17;;;;;;;;;;10316602;28;20267;-70
2024/01/13 22:12:09;;;;;;;4.28;3.88;;;;;;;;;;10303364;28;20209;-70
2024/01/13 22:17:12;;;;;;;3.42;3.13;;;;;;;;;;10293137;28;20184;-69
2024/01/13 22:22:13;;;;;;;3.88;3.50;;;;;;;;;;10308703;28;20219;-70
2024/01/13 22:27:13;;;;;;;4.18;3.25;;;;;;;;;;10294531;28;20199;-69
2024/01/13 22:32:14;;;;;;;2.80;2.65;;;;;;;;;;10319551;28;20232;-70
2024/01/13 22:37:15;;;;;;;2.58;2.38;;;;;;;;;;10318572;28;20180;-70
2024/01/13 22:42:16;;;;;;;5.82;2.78;;;;;;;;;;10318397;28;20230;-70
2024/01/13 22:47:17;;;;;;;3.13;2.80;;;;;;;;;;10304703;28;20734;-70
2024/01/13 22:52:19;;;;;;;3.75;3.33;;;;;;;;;;10319664;28;20213;-70
2024/01/13 22:57:20;;;;;;;3.17;2.38;;;;;;;;;;10308395;28;20242;-69
2024/01/13 23:02:21;;;;;;;2.53;2.35;;;;;;;;;;10322049;28;20208;-70
2024/01/13 23:07:22;;;;;;;3.25;2.95;;;;;;;;;;10326144;28;20188;-70
2024/01/13 23:12:23;;;;;;;3.17;2.90;;;;;;;;;;10314631;28;20236;-70
2024/01/13 23:17:24;;;;;;;5.05;2.60;;;;;;;;;;10315176;28;20620;-70
2024/01/13 23:22:25;;;;;;;3.33;2.97;;;;;;;;;;10322683;28;20679;-69
2024/01/13 23:27:26;;;;;;;2.47;2.28;;;;;;;;;;10332190;28;20187;-70
2024/01/13 23:32:27;;;;;;;2.90;2.65;;;;;;;;;;10319818;28;20224;-70
2024/01/13 23:37:28;;;;;;;5.15;2.90;;;;;;;;;;10326256;28;20200;-70
2024/01/13 23:42:30;;;;;;;2.40;2.20;;;;;;;;;;10299568;28;20264;-69
2024/01/13 23:47:31;;;;;;;4.30;2.60;;;;;;;;;;10329827;28;20190;-70
2024/01/13 23:52:35;;;;;;;3.45;3.13;;;;;;;;;;10320689;28;20303;-70
2024/01/13 23:57:41;;;;;;;2.65;2.55;;;;;;;;;;10323540;28;20237;-70
